createdAt,value
2018-01-04T00:00:05.639Z,45.91
2018-01-04T00:02:33.176Z,45.82
2018-01-04T00:05:00.811Z,45.79
2018-01-04T00:07:28.348Z,45.68
2018-01-04T00:09:55.879Z,45.60
2018-01-04T00:12:23.474Z,45.58
2018-01-04T00:14:51.003Z,45.48
2018-01-04T00:17:18.601Z,45.53
2018-01-04T00:19:46.142Z,45.41
2018-01-04T00:22:13.708Z,45.49
2018-01-04T00:24:41.300Z,45.44
2018-01-04T00:27:08.851Z,45.38
2018-01-04T00:29:36.474Z,45.33
2018-01-04T00:32:04.149Z,45.29
2018-01-04T00:34:31.772Z,45.26
2018-01-04T00:36:59.299Z,45.25
2018-01-04T00:39:26.827Z,45.22
2018-01-04T00:41:54.417Z,45.21
2018-01-04T00:44:22.024Z,45.15
2018-01-04T00:46:49.548Z,45.13
2018-01-04T00:49:17.098Z,45.08
2018-01-04T00:51:44.696Z,44.99
2018-01-04T00:54:12.317Z,44.96
2018-01-04T00:56:39.921Z,44.93
2018-01-04T00:59:07.518Z,44.86
2018-01-04T01:01:35.052Z,44.99
2018-01-04T01:04:02.605Z,44.78
2018-01-04T01:06:30.175Z,44.90
2018-01-04T01:08:57.706Z,44.74
2018-01-04T01:11:25.231Z,44.75
2018-01-04T01:13:52.824Z,44.74
2018-01-04T01:16:20.421Z,44.75
2018-01-04T01:18:47.957Z,44.71
2018-01-04T01:21:15.494Z,44.65
2018-01-04T01:23:43.103Z,44.66
2018-01-04T01:26:10.693Z,44.65
2018-01-04T01:28:38.227Z,44.62
2018-01-04T01:31:05.757Z,44.56
2018-01-04T01:33:33.356Z,44.51
2018-01-04T01:36:00.968Z,44.48
2018-01-04T01:38:28.576Z,44.45
2018-01-04T01:40:56.139Z,44.43
2018-01-04T01:43:23.668Z,44.50
2018-01-04T01:45:51.204Z,44.35
2018-01-04T01:48:18.801Z,44.50
2018-01-04T01:50:46.397Z,44.43
2018-01-04T01:53:13.961Z,44.38
2018-01-04T01:55:41.484Z,44.32
2018-01-04T01:58:09.095Z,44.33
2018-01-04T02:00:36.630Z,44.29
2018-01-04T02:03:04.167Z,44.26
2018-01-04T02:05:31.698Z,44.23
2018-01-04T02:07:59.230Z,44.17
2018-01-04T02:10:26.799Z,44.17
2018-01-04T02:12:54.389Z,44.13
2018-01-04T02:15:21.917Z,44.05
2018-01-04T02:17:49.557Z,44.05
2018-01-04T02:20:29.028Z,44.04
2018-01-04T02:23:08.525Z,43.98
2018-01-04T02:25:47.818Z,44.05
2018-01-04T02:28:27.086Z,43.96
2018-01-04T02:31:06.354Z,44.04
2018-01-04T02:33:45.920Z,43.96
2018-01-04T02:36:25.193Z,44.08
2018-01-04T02:42:06.424Z,44.05
2018-01-04T02:44:40.028Z,44.02
2018-01-04T02:47:07.553Z,44.02
2018-01-04T02:49:35.104Z,43.99
2018-01-04T02:52:02.625Z,43.96
2018-01-04T02:54:30.247Z,43.84
2018-01-04T02:56:57.883Z,43.78
2018-01-04T02:59:25.473Z,43.74
2018-01-04T03:01:53.072Z,43.69
2018-01-04T03:04:20.673Z,43.65
2018-01-04T03:06:48.286Z,43.61
2018-01-04T03:09:15.810Z,43.59
2018-01-04T03:11:43.330Z,43.54
2018-01-04T03:14:10.907Z,43.47
2018-01-04T03:16:38.500Z,43.58
2018-01-04T03:19:06.097Z,43.45
2018-01-04T03:21:33.622Z,43.48
2018-01-04T03:24:01.155Z,43.41
2018-01-04T03:26:34.194Z,43.48
2018-01-04T03:29:07.315Z,43.38
2018-01-04T03:31:40.531Z,43.31
2018-01-04T03:34:13.694Z,43.33
2018-01-04T03:36:46.651Z,43.32
2018-01-04T03:39:19.649Z,43.31
2018-01-04T03:44:53.544Z,43.25
2018-01-04T03:47:26.734Z,43.23
2018-01-04T03:49:59.795Z,43.27
2018-01-04T03:52:32.233Z,43.30
2018-01-04T03:55:05.243Z,43.24
2018-01-04T03:57:38.493Z,43.25
2018-01-04T04:00:11.720Z,43.20
2018-01-04T04:02:44.823Z,43.21
2018-01-04T04:05:17.888Z,43.22
2018-01-04T04:07:45.442Z,43.29
2018-01-04T04:10:12.967Z,43.38
2018-01-04T04:12:40.482Z,43.63
2018-01-04T04:15:08.105Z,43.89
2018-01-04T04:17:35.630Z,44.63
2018-01-04T04:20:03.197Z,44.73
2018-01-04T04:22:30.731Z,45.11
2018-01-04T04:24:58.254Z,45.40
2018-01-04T04:27:25.782Z,45.63
2018-01-04T04:29:53.316Z,45.58
2018-01-04T04:32:20.907Z,46.01
2018-01-04T04:34:48.427Z,45.99
2018-01-04T04:37:16.022Z,45.91
2018-01-04T04:39:43.548Z,45.82
2018-01-04T04:42:11.076Z,45.93
2018-01-04T04:44:38.648Z,45.85
2018-01-04T04:47:06.245Z,46.01
2018-01-04T04:49:33.829Z,46.20
2018-01-04T04:52:01.381Z,46.27
2018-01-04T04:54:28.976Z,47.09
2018-01-04T04:56:56.569Z,47.30
2018-01-04T04:59:24.162Z,47.31
2018-01-04T05:01:51.753Z,46.98
2018-01-04T05:04:19.339Z,46.83
2018-01-04T05:06:46.867Z,46.91
2018-01-04T05:09:14.420Z,47.18
2018-01-04T05:11:42.022Z,47.37
2018-01-04T05:14:09.546Z,47.45
2018-01-04T05:16:37.147Z,47.62
2018-01-04T05:19:04.820Z,47.74
2018-01-04T05:21:32.414Z,47.89
2018-01-04T05:24:00.007Z,47.99
2018-01-04T05:26:27.600Z,47.91
2018-01-04T05:28:55.123Z,47.79
2018-01-04T05:31:22.709Z,47.61
2018-01-04T05:33:50.308Z,47.61
2018-01-04T05:36:17.917Z,47.49
2018-01-04T05:38:45.446Z,47.32
2018-01-04T05:41:13.041Z,47.28
2018-01-04T05:43:40.638Z,47.12
2018-01-04T05:46:08.233Z,47.07
2018-01-04T05:48:35.755Z,46.96
2018-01-04T05:51:03.346Z,46.86
2018-01-04T05:53:30.941Z,46.79
2018-01-04T05:55:58.460Z,46.73
2018-01-04T05:58:25.980Z,46.61
2018-01-04T06:00:53.498Z,46.49
2018-01-04T06:03:21.052Z,46.40
2018-01-04T06:05:48.643Z,46.33
2018-01-04T06:08:16.163Z,46.26
2018-01-04T06:10:43.750Z,46.17
2018-01-04T06:13:11.341Z,46.08
2018-01-04T06:15:38.870Z,45.98
2018-01-04T06:18:06.467Z,45.92
2018-01-04T06:20:34.021Z,45.80
2018-01-04T06:23:01.608Z,45.85
2018-01-04T06:25:29.136Z,45.73
2018-01-04T06:27:56.725Z,45.72
2018-01-04T06:30:24.320Z,45.66
2018-01-04T06:32:51.914Z,45.78
2018-01-04T06:35:19.430Z,45.65
2018-01-04T06:37:46.985Z,45.61
2018-01-04T06:40:14.510Z,45.55
2018-01-04T06:42:42.096Z,45.55
2018-01-04T06:45:09.693Z,45.46
2018-01-04T06:47:37.276Z,45.44
2018-01-04T06:50:04.859Z,45.34
2018-01-04T06:52:32.379Z,45.24
2018-01-04T06:55:00.002Z,45.17
2018-01-04T06:57:27.596Z,45.11
2018-01-04T06:59:55.176Z,45.03
2018-01-04T07:02:22.760Z,44.95
2018-01-04T07:04:50.350Z,44.90
2018-01-04T07:07:17.875Z,44.82
2018-01-04T07:09:45.460Z,44.78
2018-01-04T07:12:12.983Z,44.82
2018-01-04T07:14:40.581Z,44.74
2018-01-04T07:17:08.173Z,44.75
2018-01-04T07:19:35.701Z,44.75
2018-01-04T07:22:03.254Z,44.84
2018-01-04T07:24:30.775Z,44.71
2018-01-04T07:26:58.373Z,44.72
2018-01-04T07:29:25.891Z,44.71
2018-01-04T07:31:53.416Z,44.64
2018-01-04T07:34:21.000Z,44.60
2018-01-04T07:36:48.520Z,44.51
2018-01-04T07:39:16.075Z,44.44
2018-01-04T07:41:43.600Z,44.37
2018-01-04T07:44:11.185Z,44.33
2018-01-04T07:46:38.712Z,44.28
2018-01-04T07:49:06.312Z,44.17
2018-01-04T07:51:33.908Z,44.16
2018-01-04T07:54:01.497Z,44.09
2018-01-04T07:56:29.108Z,44.03
2018-01-04T07:58:56.627Z,44.07
2018-01-04T08:01:24.221Z,43.93
2018-01-04T08:03:51.747Z,44.03
2018-01-04T08:06:19.272Z,43.94
2018-01-04T08:08:46.865Z,43.94
2018-01-04T08:11:14.383Z,43.90
2018-01-04T08:13:42.013Z,43.90
2018-01-04T08:16:09.600Z,43.90
2018-01-04T08:18:37.193Z,43.87
2018-01-04T08:21:04.706Z,43.82
2018-01-04T08:23:32.228Z,43.76
2018-01-04T08:25:59.861Z,43.72
2018-01-04T08:28:27.449Z,43.68
2018-01-04T08:30:54.963Z,43.64
2018-01-04T08:33:22.478Z,43.63
2018-01-04T08:35:50.074Z,43.69
2018-01-04T08:38:17.666Z,43.52
2018-01-04T08:40:45.184Z,43.65
2018-01-04T08:43:12.800Z,43.59
2018-01-04T08:45:40.409Z,43.61
2018-01-04T08:48:07.997Z,43.59
2018-01-04T08:50:35.590Z,43.53
2018-01-04T08:53:03.111Z,43.52
2018-01-04T08:55:30.702Z,43.47
2018-01-04T08:57:58.285Z,43.44
2018-01-04T09:00:25.918Z,43.37
2018-01-04T09:02:53.503Z,43.35
2018-01-04T09:05:21.023Z,43.41
2018-01-04T09:07:48.609Z,43.30
2018-01-04T09:10:16.128Z,43.30
2018-01-04T09:12:43.714Z,43.28
2018-01-04T09:15:11.293Z,43.29
2018-01-04T09:17:38.816Z,43.25
2018-01-04T09:20:06.401Z,43.22
2018-01-04T09:22:33.918Z,43.19
2018-01-04T09:25:01.505Z,43.14
2018-01-04T09:27:29.020Z,43.10
2018-01-04T09:29:56.633Z,43.05
2018-01-04T09:32:24.147Z,43.02
2018-01-04T09:34:51.777Z,43.06
2018-01-04T09:37:19.300Z,43.01
2018-01-04T09:39:46.814Z,43.03
2018-01-04T09:42:14.408Z,43.02
2018-01-04T09:44:43.057Z,42.99
2018-01-04T09:47:10.679Z,43.00
2018-01-04T09:49:38.200Z,42.98
2018-01-04T09:52:05.792Z,42.98
2018-01-04T09:54:33.372Z,43.04
2018-01-04T09:57:00.901Z,42.95
2018-01-04T09:59:28.415Z,43.06
2018-01-04T10:01:55.938Z,43.02
2018-01-04T10:04:23.557Z,43.04
2018-01-04T10:06:51.140Z,43.07
2018-01-04T10:09:18.655Z,43.05
2018-01-04T10:11:46.237Z,43.02
2018-01-04T10:14:13.752Z,42.98
2018-01-04T10:16:41.271Z,43.02
2018-01-04T10:19:08.860Z,42.94
2018-01-04T10:21:36.375Z,43.01
2018-01-04T10:24:03.961Z,42.94
2018-01-04T10:26:31.477Z,42.97
2018-01-04T10:28:58.995Z,42.97
2018-01-04T10:31:26.543Z,42.96
2018-01-04T10:33:54.065Z,42.94
2018-01-04T10:36:21.587Z,42.89
2018-01-04T10:38:49.175Z,42.94
2018-01-04T10:41:16.756Z,42.85
2018-01-04T10:43:44.336Z,42.92
2018-01-04T10:46:11.924Z,42.87
2018-01-04T10:48:39.541Z,42.88
2018-01-04T10:51:07.055Z,42.87
2018-01-04T10:53:34.644Z,42.84
2018-01-04T10:56:02.164Z,42.83
2018-01-04T10:58:29.681Z,42.80
2018-01-04T11:00:57.268Z,42.77
2018-01-04T11:03:24.849Z,42.79
2018-01-04T11:05:52.393Z,42.70
2018-01-04T11:08:19.993Z,42.81
2018-01-04T11:10:47.511Z,42.83
2018-01-04T11:13:15.092Z,42.96
2018-01-04T11:15:42.623Z,42.98
2018-01-04T11:18:10.139Z,43.02
2018-01-04T11:20:37.727Z,42.92
2018-01-04T11:23:05.281Z,43.08
2018-01-04T11:25:32.885Z,43.20
2018-01-04T11:28:00.545Z,43.40
2018-01-04T11:30:28.091Z,43.37
2018-01-04T11:32:55.616Z,43.24
2018-01-04T11:35:23.249Z,43.18
2018-01-04T11:37:50.776Z,43.15
2018-01-04T11:40:18.315Z,43.09
2018-01-04T11:42:45.910Z,43.02
2018-01-04T11:45:13.641Z,42.99
2018-01-04T11:47:41.175Z,43.15
2018-01-04T11:50:08.776Z,43.24
2018-01-04T11:52:36.487Z,43.18
2018-01-04T11:55:04.037Z,43.14
2018-01-04T11:57:31.560Z,43.10
2018-01-04T11:59:59.132Z,43.12
2018-01-04T12:02:26.668Z,43.17
2018-01-04T12:04:54.336Z,43.09
2018-01-04T12:07:21.886Z,43.14
2018-01-04T12:09:49.546Z,43.18
2018-01-04T12:12:17.146Z,43.21
2018-01-04T12:14:44.688Z,43.20
2018-01-04T12:17:12.293Z,43.17
2018-01-04T12:19:39.816Z,43.18
2018-01-04T12:22:13.678Z,43.16
2018-01-04T12:24:41.194Z,43.20
2018-01-04T12:27:08.744Z,43.18
2018-01-04T12:29:36.373Z,43.17
2018-01-04T12:32:06.499Z,43.20
2018-01-04T12:34:34.130Z,43.18
2018-01-04T12:37:01.824Z,43.20
2018-01-04T12:39:29.407Z,43.19
2018-01-04T12:41:56.923Z,43.20
2018-01-04T12:44:24.440Z,43.21
2018-01-04T12:46:52.067Z,43.26
2018-01-04T12:49:19.592Z,43.23
2018-01-04T12:51:47.220Z,43.25
2018-01-04T12:54:14.859Z,43.26
2018-01-04T12:56:42.383Z,43.27
2018-01-04T12:59:09.948Z,43.26
2018-01-04T13:01:37.532Z,43.21
2018-01-04T13:04:05.128Z,43.22
2018-01-04T13:06:32.835Z,43.21
2018-01-04T13:09:00.469Z,43.23
2018-01-04T13:11:28.061Z,43.24
2018-01-04T13:13:55.603Z,43.25
2018-01-04T13:16:23.135Z,43.30
2018-01-04T13:18:50.662Z,43.33
2018-01-04T13:21:18.188Z,43.38
2018-01-04T13:23:45.774Z,43.41
2018-01-04T13:26:13.410Z,43.39
2018-01-04T13:28:41.043Z,43.41
2018-01-04T13:31:08.702Z,43.31
2018-01-04T13:33:36.282Z,43.18
2018-01-04T13:36:03.898Z,43.20
2018-01-04T13:38:31.580Z,43.31
2018-01-04T13:40:59.111Z,43.38
2018-01-04T13:43:26.743Z,43.45
2018-01-04T13:45:54.332Z,43.56
2018-01-04T13:48:21.847Z,43.64
2018-01-04T13:53:19.697Z,43.75
2018-01-04T13:55:47.304Z,43.79
2018-01-04T13:58:14.843Z,43.84
2018-01-04T14:00:42.445Z,43.78
2018-01-04T14:03:10.064Z,43.84
2018-01-04T14:05:37.661Z,43.83
2018-01-04T14:08:05.289Z,43.91
2018-01-04T14:10:32.820Z,43.80
2018-01-04T14:13:00.348Z,43.85
2018-01-04T14:15:27.933Z,43.88
2018-01-04T14:17:55.534Z,43.86
2018-01-04T14:20:23.162Z,43.85
2018-01-04T14:22:50.787Z,43.84
2018-01-04T14:25:18.375Z,43.76
2018-01-04T14:27:45.892Z,43.74
2018-01-04T14:30:13.489Z,43.69
2018-01-04T14:32:41.070Z,43.65
2018-01-04T14:35:08.654Z,43.66
2018-01-04T14:37:36.274Z,43.63
2018-01-04T14:40:03.812Z,43.63
2018-01-04T14:42:31.440Z,43.72
2018-01-04T14:44:58.961Z,43.73
2018-01-04T14:47:26.557Z,43.76
2018-01-04T14:49:54.075Z,43.71
2018-01-04T14:52:21.615Z,43.76
2018-01-04T14:54:49.172Z,43.78
2018-01-04T14:57:16.773Z,43.86
2018-01-04T14:59:44.361Z,43.90
2018-01-04T15:02:11.950Z,43.86
2018-01-04T15:04:39.466Z,43.92
2018-01-04T15:07:07.016Z,43.97
2018-01-04T15:09:34.531Z,43.96
2018-01-04T15:12:02.069Z,43.96
2018-01-04T15:14:29.599Z,43.93
2018-01-04T15:16:57.259Z,43.94
2018-01-04T15:19:24.806Z,43.94
2018-01-04T15:21:52.398Z,43.98
2018-01-04T15:24:19.957Z,43.93
2018-01-04T15:26:47.538Z,43.93
2018-01-04T15:29:15.131Z,43.93
2018-01-04T15:31:42.644Z,43.92
2018-01-04T15:34:10.163Z,43.87
2018-01-04T15:36:37.718Z,43.82
2018-01-04T15:39:05.257Z,43.81
2018-01-04T15:41:32.881Z,43.80
2018-01-04T15:44:00.403Z,43.81
2018-01-04T15:46:27.917Z,43.76
2018-01-04T15:48:55.433Z,43.72
2018-01-04T15:51:23.030Z,43.70
2018-01-04T15:53:50.547Z,43.69
2018-01-04T15:56:18.136Z,43.68
2018-01-04T15:58:45.664Z,43.64
2018-01-04T16:01:13.253Z,43.63
2018-01-04T16:03:40.837Z,43.61
2018-01-04T16:06:08.363Z,43.57
2018-01-04T16:08:35.883Z,43.56
2018-01-04T16:11:03.466Z,43.51
2018-01-04T16:13:31.092Z,43.48
2018-01-04T16:15:58.681Z,43.42
2018-01-04T16:18:26.195Z,43.45
2018-01-04T16:20:53.786Z,43.59
2018-01-04T16:23:21.318Z,43.70
2018-01-04T16:25:48.929Z,43.98
2018-01-04T16:28:16.549Z,44.01
2018-01-04T16:30:44.143Z,44.07
2018-01-04T16:33:11.670Z,44.13
2018-01-04T16:35:39.260Z,44.18
2018-01-04T16:38:06.859Z,44.29
2018-01-04T16:40:34.379Z,44.38
2018-01-04T16:43:01.948Z,44.32
2018-01-04T16:45:29.484Z,44.26
2018-01-04T16:47:57.004Z,44.23
2018-01-04T16:50:24.593Z,44.25
2018-01-04T16:52:52.177Z,44.26
2018-01-04T16:55:19.691Z,44.26
2018-01-04T16:57:47.285Z,44.71
2018-01-04T17:00:14.908Z,45.53
2018-01-04T17:02:42.433Z,46.20
2018-01-04T17:05:09.959Z,46.42
2018-01-04T17:07:37.480Z,46.17
2018-01-04T17:10:05.104Z,46.19
2018-01-04T17:12:32.639Z,46.28
2018-01-04T17:15:00.251Z,45.94
2018-01-04T17:17:27.836Z,46.03
2018-01-04T17:19:55.369Z,45.97
2018-01-04T17:22:23.001Z,46.31
2018-01-04T17:24:50.610Z,45.88
2018-01-04T17:27:18.205Z,45.86
2018-01-04T17:29:45.768Z,45.84
2018-01-04T17:32:13.385Z,45.83
2018-01-04T17:34:40.916Z,46.13
2018-01-04T17:37:08.589Z,46.12
2018-01-04T17:39:36.197Z,46.11
2018-01-04T17:42:03.731Z,46.24
2018-01-04T17:44:31.317Z,46.05
2018-01-04T17:46:58.941Z,46.80
2018-01-04T17:49:26.503Z,46.68
2018-01-04T17:51:54.109Z,47.02
2018-01-04T17:54:21.728Z,47.26
2018-01-04T17:56:49.358Z,47.94
2018-01-04T17:59:16.877Z,48.38
2018-01-04T18:01:44.464Z,48.84
2018-01-04T18:04:11.982Z,49.46
2018-01-04T18:06:39.503Z,49.57
2018-01-04T18:09:07.035Z,49.93
2018-01-04T18:11:34.592Z,49.84
2018-01-04T18:14:02.199Z,49.80
2018-01-04T18:16:29.775Z,50.43
2018-01-04T18:18:57.343Z,51.69
2018-01-04T18:21:26.380Z,52.16
2018-01-04T18:23:54.206Z,51.82
2018-01-04T18:26:21.821Z,52.07
2018-01-04T18:28:49.362Z,52.16
2018-01-04T18:31:17.137Z,51.96
2018-01-04T18:33:44.740Z,51.98
2018-01-04T18:36:12.311Z,51.92
2018-01-04T18:38:39.851Z,51.69
2018-01-04T18:41:07.481Z,51.29
2018-01-04T18:43:35.025Z,51.33
2018-01-04T18:46:02.634Z,51.35
2018-01-04T18:48:30.253Z,51.21
2018-01-04T18:50:57.770Z,51.15
2018-01-04T18:53:25.378Z,51.50
2018-01-04T18:55:52.996Z,51.39
2018-01-04T18:58:20.602Z,52.09
2018-01-04T19:00:48.129Z,51.82
2018-01-04T19:03:15.768Z,51.62
2018-01-04T19:05:43.429Z,51.53
2018-01-04T19:08:11.209Z,51.57
2018-01-04T19:10:38.734Z,51.62
2018-01-04T19:13:06.273Z,51.92
2018-01-04T19:15:33.908Z,51.93
2018-01-04T19:18:01.427Z,51.96
2018-01-04T19:20:28.955Z,51.82
2018-01-04T19:22:56.527Z,51.64
2018-01-04T19:25:24.122Z,51.38
2018-01-04T19:27:51.647Z,51.40
2018-01-04T19:30:19.167Z,51.39
2018-01-04T19:32:46.764Z,51.36
2018-01-04T19:35:14.321Z,51.13
2018-01-04T19:37:41.996Z,50.98
2018-01-04T19:40:09.555Z,50.93
2018-01-04T19:42:37.094Z,50.79
2018-01-04T19:45:04.632Z,50.68
2018-01-04T19:47:32.159Z,50.63
2018-01-04T19:49:59.711Z,50.51
2018-01-04T19:52:27.350Z,50.60
2018-01-04T19:54:54.961Z,50.49
2018-01-04T19:57:22.495Z,50.48
2018-01-04T19:59:50.033Z,50.35
2018-01-04T20:02:17.559Z,50.24
2018-01-04T20:04:45.230Z,50.20
2018-01-04T20:07:12.792Z,49.99
2018-01-04T20:09:40.384Z,49.75
2018-01-04T20:12:07.960Z,49.58
2018-01-04T20:14:35.548Z,49.37
2018-01-04T20:17:03.096Z,49.47
2018-01-04T20:19:30.623Z,49.82
2018-01-04T20:21:58.176Z,49.72
2018-01-04T20:24:25.749Z,49.94
2018-01-04T20:26:53.320Z,50.32
2018-01-04T20:29:20.846Z,49.60
2018-01-04T20:31:48.383Z,49.54
2018-01-04T20:34:15.943Z,49.67
2018-01-04T20:36:43.532Z,50.13
2018-01-04T20:39:11.213Z,50.46
2018-01-04T20:41:38.855Z,50.60
2018-01-04T20:44:06.457Z,50.52
2018-01-04T20:46:33.987Z,50.36
2018-01-04T20:49:01.540Z,49.95
2018-01-04T20:51:29.175Z,50.11
2018-01-04T20:53:56.714Z,50.11
2018-01-04T20:56:24.317Z,50.02
2018-01-04T20:58:51.924Z,49.82
2018-01-04T21:01:19.514Z,49.73
2018-01-04T21:03:47.039Z,49.58
2018-01-04T21:06:14.569Z,49.38
2018-01-04T21:08:42.170Z,49.16
2018-01-04T21:11:09.765Z,49.16
2018-01-04T21:13:37.381Z,49.02
2018-01-04T21:16:04.918Z,49.00
2018-01-04T21:18:32.440Z,48.92
2018-01-04T21:21:00.014Z,48.85
2018-01-04T21:23:27.536Z,48.69
2018-01-04T21:25:55.134Z,48.58
2018-01-04T21:28:22.663Z,48.49
2018-01-04T21:30:50.219Z,48.36
2018-01-04T21:33:17.808Z,48.33
2018-01-04T21:35:45.406Z,48.25
2018-01-04T21:38:13.029Z,48.18
2018-01-04T21:40:40.629Z,48.00
2018-01-04T21:43:08.219Z,47.88
2018-01-04T21:45:35.751Z,47.82
2018-01-04T21:48:03.279Z,47.67
2018-01-04T21:50:30.859Z,47.65
2018-01-04T21:52:58.384Z,47.55
2018-01-04T21:55:25.911Z,47.50
2018-01-04T21:57:53.427Z,47.40
2018-01-04T22:00:20.960Z,47.34
2018-01-04T22:02:48.563Z,47.26
2018-01-04T22:05:16.082Z,47.13
2018-01-04T22:07:43.709Z,47.12
2018-01-04T22:10:11.306Z,47.04
2018-01-04T22:12:38.835Z,47.00
2018-01-04T22:15:06.399Z,46.72
2018-01-04T22:17:33.993Z,46.70
2018-01-04T22:20:01.585Z,46.71
2018-01-04T22:22:29.112Z,46.71
2018-01-04T22:24:56.648Z,46.70
2018-01-04T22:27:24.169Z,46.78
2018-01-04T22:29:51.774Z,46.68
2018-01-04T22:32:19.370Z,46.62
2018-01-04T22:34:46.978Z,46.61
2018-01-04T22:37:14.570Z,46.57
2018-01-04T22:39:42.165Z,46.55
2018-01-04T22:42:09.756Z,46.53
2018-01-04T22:44:37.362Z,46.46
2018-01-04T22:47:04.915Z,46.40
2018-01-04T22:49:32.568Z,46.48
2018-01-04T22:52:00.164Z,46.33
2018-01-04T22:54:27.782Z,46.28
2018-01-04T22:56:55.337Z,46.24
2018-01-04T22:59:22.873Z,46.15
2018-01-04T23:01:50.433Z,46.11
2018-01-04T23:04:18.062Z,45.99
2018-01-04T23:06:45.644Z,45.94
2018-01-04T23:09:13.168Z,45.87
2018-01-04T23:11:40.691Z,45.79
2018-01-04T23:14:08.308Z,45.70
2018-01-04T23:16:35.946Z,45.64
2018-01-04T23:19:03.470Z,45.57
2018-01-04T23:21:31.064Z,45.49
2018-01-04T23:23:58.690Z,45.44
2018-01-04T23:26:26.300Z,45.50
2018-01-04T23:28:53.822Z,45.46
2018-01-04T23:31:21.428Z,45.49
2018-01-04T23:33:49.049Z,45.47
2018-01-04T23:36:16.658Z,45.42
2018-01-04T23:38:44.183Z,45.37
2018-01-04T23:41:11.704Z,45.31
2018-01-04T23:43:39.223Z,45.25
2018-01-04T23:46:06.747Z,45.15
2018-01-04T23:48:34.350Z,45.07
2018-01-04T23:51:01.877Z,44.96
2018-01-04T23:53:29.402Z,44.91
2018-01-04T23:55:56.989Z,44.82
2018-01-04T23:58:24.507Z,44.74
